sensor_id;sensor_type;location;lat;lon;timestamp;pressure;altitude;pressure_sealevel;temperature;humidity
17950;BME280;9100;48.700;9.316;2023-12-07T00:00:08;97990.8;;;3.95;100
17950;BME280;9100;48.700;9.316;2023-12-07T00:01:08;97987.5;;;3.95;100
17950;BME280;9100;48.700;9.316;2023-12-07T00:02:08;97996.1;;;3.94;100
17950;BME280;9100;48.700;9.316;2023-12-07T00:03:05;97997.79999999999;;;3.93;100
17950;BME280;9100;48.700;9.316;2023-12-07T00:03:08;97992.8;;;3.91;100
17950;BME280;9100;48.700;9.316;2023-12-07T00:04:08;97991;;;3.94;100
17950;BME280;9100;48.700;9.316;2023-12-07T00:05:08;97995.1;;;3.95;100
17950;BME280;9100;48.700;9.316;2023-12-07T00:06:08;98001;;;3.95;100
17950;BME280;9100;48.700;9.316;2023-12-07T00:07:08;97998.29999999999;;;3.97;100
17950;BME280;9100;48.700;9.316;2023-12-07T00:08:04;97999.40000000001;;;3.94;100
17950;BME280;9100;48.700;9.316;2023-12-07T00:08:09;98004.3;;;3.96;100
17950;BME280;9100;48.700;9.316;2023-12-07T00:09:08;98001.9;;;3.94;100
17950;BME280;9100;48.700;9.316;2023-12-07T00:10:08;97991.8;;;3.94;100
17950;BME280;9100;48.700;9.316;2023-12-07T00:11:08;98000.2;;;3.95;100
17950;BME280;9100;48.700;9.316;2023-12-07T00:12:08;98000.3;;;3.93;100
17950;BME280;9100;48.700;9.316;2023-12-07T00:13:04;98003;;;3.91;100
17950;BME280;9100;48.700;9.316;2023-12-07T00:13:08;98000.40000000001;;;3.91;100
17950;BME280;9100;48.700;9.316;2023-12-07T00:14:08;98001.4;;;3.9;100
17950;BME280;9100;48.700;9.316;2023-12-07T00:15:08;97999.8;;;3.89;100
17950;BME280;9100;48.700;9.316;2023-12-07T00:16:08;98003.2;;;3.88;100
17950;BME280;9100;48.700;9.316;2023-12-07T00:17:08;98001.59999999999;;;3.87;100
17950;BME280;9100;48.700;9.316;2023-12-07T00:18:04;98001.59999999999;;;3.87;100
17950;BME280;9100;48.700;9.316;2023-12-07T00:18:08;98010.2;;;3.86;100
17950;BME280;9100;48.700;9.316;2023-12-07T00:19:08;98002.59999999999;;;3.86;100
17950;BME280;9100;48.700;9.316;2023-12-07T00:20:08;98008.4;;;3.87;100
17950;BME280;9100;48.700;9.316;2023-12-07T00:21:08;98008.4;;;3.87;100
17950;BME280;9100;48.700;9.316;2023-12-07T00:22:08;98007.6;;;3.86;100
17950;BME280;9100;48.700;9.316;2023-12-07T00:23:04;98013.5;;;3.87;100
17950;BME280;9100;48.700;9.316;2023-12-07T00:23:08;98012.7;;;3.86;100
17950;BME280;9100;48.700;9.316;2023-12-07T00:24:08;98005.9;;;3.87;100
17950;BME280;9100;48.700;9.316;2023-12-07T00:25:08;98011.7;;;3.87;100
17950;BME280;9100;48.700;9.316;2023-12-07T00:26:08;98012.7;;;3.86;100
17950;BME280;9100;48.700;9.316;2023-12-07T00:27:08;98008.5;;;3.85;100
17950;BME280;9100;48.700;9.316;2023-12-07T00:28:05;98006;;;3.85;100
17950;BME280;9100;48.700;9.316;2023-12-07T00:28:08;98016.09999999999;;;3.85;100
17950;BME280;9100;48.700;9.316;2023-12-07T00:29:08;98008.5;;;3.85;100
17950;BME280;9100;48.700;9.316;2023-12-07T00:30:08;98005.3;;;3.83;100
17950;BME280;9100;48.700;9.316;2023-12-07T00:31:09;98012;;;3.84;100
17950;BME280;9100;48.700;9.316;2023-12-07T00:32:08;98010.40000000001;;;3.83;100
17950;BME280;9100;48.700;9.316;2023-12-07T00:33:05;98009.7;;;3.81;100
17950;BME280;9100;48.700;9.316;2023-12-07T00:33:08;98017.3;;;3.81;100
17950;BME280;9100;48.700;9.316;2023-12-07T00:34:08;98009.7;;;3.81;100
17950;BME280;9100;48.700;9.316;2023-12-07T00:35:08;98014;;;3.81;100
17950;BME280;9100;48.700;9.316;2023-12-07T00:36:08;98008.90000000001;;;3.81;100
17950;BME280;9100;48.700;9.316;2023-12-07T00:37:08;98014.09999999999;;;3.79;100
17950;BME280;9100;48.700;9.316;2023-12-07T00:38:05;98009.1;;;3.79;100
17950;BME280;9100;48.700;9.316;2023-12-07T00:38:08;98019.2;;;3.79;100
17950;BME280;9100;48.700;9.316;2023-12-07T00:39:08;98008.3;;;3.79;100
17950;BME280;9100;48.700;9.316;2023-12-07T00:40:08;98013.2;;;3.8;100
17950;BME280;9100;48.700;9.316;2023-12-07T00:41:08;98011.6;;;3.79;100
17950;BME280;9100;48.700;9.316;2023-12-07T00:42:08;98015.7;;;3.8;100
17950;BME280;9100;48.700;9.316;2023-12-07T00:43:05;98008.90000000001;;;3.81;100
17950;BME280;9100;48.700;9.316;2023-12-07T00:43:08;97992.8;;;3.72;100
17950;BME280;9100;48.700;9.316;2023-12-07T00:44:08;98009.7;;;3.81;100
17950;BME280;9100;48.700;9.316;2023-12-07T00:45:08;98012.2;;;3.81;100
17950;BME280;9100;48.700;9.316;2023-12-07T00:46:08;98013.9;;;3.82;100
17950;BME280;9100;48.700;9.316;2023-12-07T00:47:08;98016.4;;;3.82;100
17950;BME280;9100;48.700;9.316;2023-12-07T00:48:05;98012.2;;;3.81;100
17950;BME280;9100;48.700;9.316;2023-12-07T00:48:08;98013.9;;;3.82;100
17950;BME280;9100;48.700;9.316;2023-12-07T00:49:08;98013.9;;;3.82;100
17950;BME280;9100;48.700;9.316;2023-12-07T00:50:08;98020.5;;;3.83;100
17950;BME280;9100;48.700;9.316;2023-12-07T00:51:08;98022.1;;;3.84;100
17950;BME280;9100;48.700;9.316;2023-12-07T00:52:08;98021.3;;;3.84;100
17950;BME280;9100;48.700;9.316;2023-12-07T00:53:05;98013.9;;;3.82;100
17950;BME280;9100;48.700;9.316;2023-12-07T00:53:08;98019.8;;;3.81;100
17950;BME280;9100;48.700;9.316;2023-12-07T00:54:08;98019.8;;;3.81;100
17950;BME280;9100;48.700;9.316;2023-12-07T00:55:08;98024;;;3.82;100
17950;BME280;9100;48.700;9.316;2023-12-07T00:56:08;98023.2;;;3.82;100
17950;BME280;9100;48.700;9.316;2023-12-07T00:57:08;98024.90000000001;;;3.81;100
17950;BME280;9100;48.700;9.316;2023-12-07T00:58:05;98017.4;;;3.8;100
17950;BME280;9100;48.700;9.316;2023-12-07T00:58:08;98024.2;;;3.79;100
17950;BME280;9100;48.700;9.316;2023-12-07T00:59:08;98020.8;;;3.8;100
17950;BME280;9100;48.700;9.316;2023-12-07T01:00:09;98019.8;;;3.81;100
17950;BME280;9100;48.700;9.316;2023-12-07T01:01:08;98014;;;3.81;100
17950;BME280;9100;48.700;9.316;2023-12-07T01:02:08;98020.6;;;3.82;100
17950;BME280;9100;48.700;9.316;2023-12-07T01:03:05;98016.7;;;3.79;100
17950;BME280;9100;48.700;9.316;2023-12-07T01:03:08;98018.4;;;3.79;100
17950;BME280;9100;48.700;9.316;2023-12-07T01:04:08;98019.3;;;3.78;100
17950;BME280;9100;48.700;9.316;2023-12-07T01:05:08;98020.9;;;3.79;100
17950;BME280;9100;48.700;9.316;2023-12-07T01:06:08;98020.2;;;3.77;100
17950;BME280;9100;48.700;9.316;2023-12-07T01:07:08;98020.4;;;3.75;100
17950;BME280;9100;48.700;9.316;2023-12-07T01:08:05;98020.5;;;3.74;100
17950;BME280;9100;48.700;9.316;2023-12-07T01:08:08;98020.6;;;3.72;100
17950;BME280;9100;48.700;9.316;2023-12-07T01:09:08;98021.3;;;3.74;100
17950;BME280;9100;48.700;9.316;2023-12-07T01:10:08;98027.09999999999;;;3.75;100
17950;BME280;9100;48.700;9.316;2023-12-07T01:11:08;98031.3;;;3.76;100
17950;BME280;9100;48.700;9.316;2023-12-07T01:12:08;98025.59999999999;;;3.72;100
17950;BME280;9100;48.700;9.316;2023-12-07T01:13:05;98026.59999999999;;;3.71;100
17950;BME280;9100;48.700;9.316;2023-12-07T01:13:08;98032.5;;;3.72;100
17950;BME280;9100;48.700;9.316;2023-12-07T01:14:08;98029.8;;;3.73;100
17950;BME280;9100;48.700;9.316;2023-12-07T01:15:08;98038.09999999999;;;3.75;100
17950;BME280;9100;48.700;9.316;2023-12-07T01:16:08;98033;;;3.75;100
17950;BME280;9100;48.700;9.316;2023-12-07T01:17:08;98040.59999999999;;;3.75;100
17950;BME280;9100;48.700;9.316;2023-12-07T01:18:05;98045.6;;;3.75;100
17950;BME280;9100;48.700;9.316;2023-12-07T01:18:08;98038.2;;;3.74;100
17950;BME280;9100;48.700;9.316;2023-12-07T01:19:08;98043.9;;;3.76;100
17950;BME280;9100;48.700;9.316;2023-12-07T01:20:08;98048.2;;;3.75;100
17950;BME280;9100;48.700;9.316;2023-12-07T01:21:08;98049.8;;;3.76;100
17950;BME280;9100;48.700;9.316;2023-12-07T01:22:08;98038.9;;;3.76;100
17950;BME280;9100;48.700;9.316;2023-12-07T01:23:05;98044.7;;;3.76;100
17950;BME280;9100;48.700;9.316;2023-12-07T01:23:08;98044.7;;;3.76;100
17950;BME280;9100;48.700;9.316;2023-12-07T01:24:08;98047.2;;;3.76;100
17950;BME280;9100;48.700;9.316;2023-12-07T01:25:08;98053.8;;;3.79;100
17950;BME280;9100;48.700;9.316;2023-12-07T01:26:08;98050.40000000001;;;3.78;100
17950;BME280;9100;48.700;9.316;2023-12-07T01:27:08;98046.3;;;3.77;100
17950;BME280;9100;48.700;9.316;2023-12-07T01:28:05;98049.8;;;3.76;100
17950;BME280;9100;48.700;9.316;2023-12-07T01:28:08;98052.20000000001;;;3.78;100
17950;BME280;9100;48.700;9.316;2023-12-07T01:29:08;98047.40000000001;;;3.75;100
17950;BME280;9100;48.700;9.316;2023-12-07T01:30:08;98056.7;;;3.74;100
17950;BME280;9100;48.700;9.316;2023-12-07T01:31:08;98053.5;;;3.72;100
17950;BME280;9100;48.700;9.316;2023-12-07T01:32:08;98049.5;;;3.7;100
17950;BME280;9100;48.700;9.316;2023-12-07T01:33:05;98047.1;;;3.68;100
17950;BME280;9100;48.700;9.316;2023-12-07T01:33:08;98046.3;;;3.68;100
17950;BME280;9100;48.700;9.316;2023-12-07T01:34:08;98052.09999999999;;;3.68;100
17950;BME280;9100;48.700;9.316;2023-12-07T01:35:08;98048;;;3.67;100
17950;BME280;9100;48.700;9.316;2023-12-07T01:36:08;98053.7;;;3.69;100
17950;BME280;9100;48.700;9.316;2023-12-07T01:37:08;98051.3;;;3.68;100
17950;BME280;9100;48.700;9.316;2023-12-07T01:38:04;98047.90000000001;;;3.69;100
17950;BME280;9100;48.700;9.316;2023-12-07T01:38:08;98048.8;;;3.68;100
17950;BME280;9100;48.700;9.316;2023-12-07T01:39:08;98049.5;;;3.7;100
17950;BME280;9100;48.700;9.316;2023-12-07T01:40:08;98055.3;;;3.7;100
17950;BME280;9100;48.700;9.316;2023-12-07T01:41:08;98050.3;;;3.7;100
17950;BME280;9100;48.700;9.316;2023-12-07T01:42:08;98046;;;3.71;100
17950;BME280;9100;48.700;9.316;2023-12-07T01:43:04;98050.3;;;3.7;100
17950;BME280;9100;48.700;9.316;2023-12-07T01:43:08;98052.8;;;3.7;100
17950;BME280;9100;48.700;9.316;2023-12-07T01:44:08;98051.09999999999;;;3.71;100
17950;BME280;9100;48.700;9.316;2023-12-07T01:45:08;98049.40000000001;;;3.71;100
17950;BME280;9100;48.700;9.316;2023-12-07T01:46:08;98045.9;;;3.72;100
17950;BME280;9100;48.700;9.316;2023-12-07T01:47:08;98042.6;;;3.72;100
17950;BME280;9100;48.700;9.316;2023-12-07T01:48:05;98052.5;;;3.73;100
17950;BME280;9100;48.700;9.316;2023-12-07T01:48:08;98050;;;3.73;100
17950;BME280;9100;48.700;9.316;2023-12-07T01:49:08;98043.3;;;3.72;100
17950;BME280;9100;48.700;9.316;2023-12-07T01:50:08;98050.8;;;3.74;100
17950;BME280;9100;48.700;9.316;2023-12-07T01:51:08;98053.2;;;3.75;100
17950;BME280;9100;48.700;9.316;2023-12-07T01:52:08;98051.59999999999;;;3.74;100
17950;BME280;9100;48.700;9.316;2023-12-07T01:53:05;98050.9;;;3.72;100
17950;BME280;9100;48.700;9.316;2023-12-07T01:53:08;97937.2;;;3.01;100
17950;BME280;9100;48.700;9.316;2023-12-07T01:54:08;98052.8;;;3.7;100
17950;BME280;9100;48.700;9.316;2023-12-07T01:55:08;98053.7;;;3.69;100
17950;BME280;9100;48.700;9.316;2023-12-07T01:56:08;98049.59999999999;;;3.68;100
17950;BME280;9100;48.700;9.316;2023-12-07T01:57:08;98045.5;;;3.67;100
17950;BME280;9100;48.700;9.316;2023-12-07T01:58:04;98056.5;;;3.66;100
17950;BME280;9100;48.700;9.316;2023-12-07T01:58:08;98047.2;;;3.67;100
17950;BME280;9100;48.700;9.316;2023-12-07T01:59:08;98050.5;;;3.67;100
17950;BME280;9100;48.700;9.316;2023-12-07T02:00:08;98045.6;;;3.66;100
17950;BME280;9100;48.700;9.316;2023-12-07T02:01:08;98050.5;;;3.67;100
17950;BME280;9100;48.700;9.316;2023-12-07T02:02:08;98050.59999999999;;;3.66;100
17950;BME280;9100;48.700;9.316;2023-12-07T02:03:05;98050.8;;;3.64;100
17950;BME280;9100;48.700;9.316;2023-12-07T02:03:08;98050;;;3.64;100
17950;BME280;9100;48.700;9.316;2023-12-07T02:04:09;98049.2;;;3.63;100
17950;BME280;9100;48.700;9.316;2023-12-07T02:05:08;98046.6;;;3.63;100
17950;BME280;9100;48.700;9.316;2023-12-07T02:06:08;98053.3;;;3.64;100
17950;BME280;9100;48.700;9.316;2023-12-07T02:07:08;98051.70000000001;;;3.63;100
17950;BME280;9100;48.700;9.316;2023-12-07T02:08:05;98048.40000000001;;;3.63;100
17950;BME280;9100;48.700;9.316;2023-12-07T02:08:08;98051.70000000001;;;3.63;100
17950;BME280;9100;48.700;9.316;2023-12-07T02:09:08;98053.5;;;3.61;100
17950;BME280;9100;48.700;9.316;2023-12-07T02:10:10;98052.59999999999;;;3.62;100
17950;BME280;9100;48.700;9.316;2023-12-07T02:11:09;98052.8;;;3.61;100
17950;BME280;9100;48.700;9.316;2023-12-07T02:12:08;98054.5;;;3.6;100
17950;BME280;9100;48.700;9.316;2023-12-07T02:13:05;98050.3;;;3.59;100
17950;BME280;9100;48.700;9.316;2023-12-07T02:13:08;98052.9;;;3.59;100
17950;BME280;9100;48.700;9.316;2023-12-07T02:14:08;98057;;;3.6;100
17950;BME280;9100;48.700;9.316;2023-12-07T02:15:08;98056.2;;;3.6;100
17950;BME280;9100;48.700;9.316;2023-12-07T02:16:11;98058.7;;;3.6;100
17950;BME280;9100;48.700;9.316;2023-12-07T02:17:09;98052.9;;;3.59;100
17950;BME280;9100;48.700;9.316;2023-12-07T02:18:06;98052.9;;;3.59;100
17950;BME280;9100;48.700;9.316;2023-12-07T02:18:10;98048.6;;;3.6;100
17950;BME280;9100;48.700;9.316;2023-12-07T02:19:11;98044.4;;;3.6;100
17950;BME280;9100;48.700;9.316;2023-12-07T02:20:09;98046.8;;;3.62;100
17950;BME280;9100;48.700;9.316;2023-12-07T02:21:11;98045;;;3.62;100
17950;BME280;9100;48.700;9.316;2023-12-07T02:22:10;98050.09999999999;;;3.62;100
17950;BME280;9100;48.700;9.316;2023-12-07T02:23:06;98046;;;3.61;100
17950;BME280;9100;48.700;9.316;2023-12-07T02:23:08;98043.4;;;3.61;100
17950;BME280;9100;48.700;9.316;2023-12-07T02:24:08;98044.4;;;3.6;100
17950;BME280;9100;48.700;9.316;2023-12-07T02:25:09;98041.2;;;3.58;100
17950;BME280;9100;48.700;9.316;2023-12-07T02:26:08;98044.6;;;3.57;100
17950;BME280;9100;48.700;9.316;2023-12-07T02:27:08;98046.5;;;3.55;100
17950;BME280;9100;48.700;9.316;2023-12-07T02:28:05;98044.9;;;3.54;100
17950;BME280;9100;48.700;9.316;2023-12-07T02:28:08;98048.2;;;3.55;100
17950;BME280;9100;48.700;9.316;2023-12-07T02:29:08;98043.9;;;3.55;100
17950;BME280;9100;48.700;9.316;2023-12-07T02:30:09;98045.7;;;3.55;100
17950;BME280;9100;48.700;9.316;2023-12-07T02:31:08;98041.4;;;3.55;100
17950;BME280;9100;48.700;9.316;2023-12-07T02:32:08;98044.9;;;3.54;100
17950;BME280;9100;48.700;9.316;2023-12-07T02:33:05;98044;;;3.54;100
17950;BME280;9100;48.700;9.316;2023-12-07T02:33:08;98049.90000000001;;;3.54;100
17950;BME280;9100;48.700;9.316;2023-12-07T02:34:08;98044.9;;;3.54;100
17950;BME280;9100;48.700;9.316;2023-12-07T02:35:08;98048.1;;;3.56;100
17950;BME280;9100;48.700;9.316;2023-12-07T02:36:09;98046.5;;;3.55;100
17950;BME280;9100;48.700;9.316;2023-12-07T02:37:08;98047.40000000001;;;3.54;100
17950;BME280;9100;48.700;9.316;2023-12-07T02:38:05;98045.1;;;3.51;100
17950;BME280;9100;48.700;9.316;2023-12-07T02:38:08;98042.6;;;3.51;100
17950;BME280;9100;48.700;9.316;2023-12-07T02:39:08;98050.2;;;3.51;100
17950;BME280;9100;48.700;9.316;2023-12-07T02:40:08;98045.3;;;3.5;100
17950;BME280;9100;48.700;9.316;2023-12-07T02:41:08;98051.09999999999;;;3.5;100
17950;BME280;9100;48.700;9.316;2023-12-07T02:42:08;98048.6;;;3.5;100
17950;BME280;9100;48.700;9.316;2023-12-07T02:43:05;98050.40000000001;;;3.48;100
17950;BME280;9100;48.700;9.316;2023-12-07T02:43:08;98047.90000000001;;;3.48;100
17950;BME280;9100;48.700;9.316;2023-12-07T02:44:08;98052;;;3.49;100
17950;BME280;9100;48.700;9.316;2023-12-07T02:45:08;98049.5;;;3.49;100
17950;BME280;9100;48.700;9.316;2023-12-07T02:46:08;98047.79999999999;;;3.5;100
17950;BME280;9100;48.700;9.316;2023-12-07T02:47:08;98012;;;3.24;100
17950;BME280;9100;48.700;9.316;2023-12-07T02:48:04;98047.1;;;3.48;100
17950;BME280;9100;48.700;9.316;2023-12-07T02:48:08;98050.40000000001;;;3.48;100
17950;BME280;9100;48.700;9.316;2023-12-07T02:49:08;98050.7;;;3.45;100
17950;BME280;9100;48.700;9.316;2023-12-07T02:50:08;98044;;;3.44;100
17950;BME280;9100;48.700;9.316;2023-12-07T02:51:08;98040.9;;;3.4;100
17950;BME280;9100;48.700;9.316;2023-12-07T02:52:08;98042.7;;;3.4;100
17950;BME280;9100;48.700;9.316;2023-12-07T02:53:05;98037.8;;;3.37;100
17950;BME280;9100;48.700;9.316;2023-12-07T02:53:08;98046.3;;;3.36;100
17950;BME280;9100;48.700;9.316;2023-12-07T02:54:08;98048;;;3.37;100
17950;BME280;9100;48.700;9.316;2023-12-07T02:55:08;98044;;;3.34;100
17950;BME280;9100;48.700;9.316;2023-12-07T02:56:08;98045.8;;;3.32;100
17950;BME280;9100;48.700;9.316;2023-12-07T02:57:08;98045;;;3.32;100
17950;BME280;9100;48.700;9.316;2023-12-07T02:58:04;98050;;;3.32;100
17950;BME280;9100;48.700;9.316;2023-12-07T02:58:08;98048.29999999999;;;3.32;100
17950;BME280;9100;48.700;9.316;2023-12-07T02:59:08;98041.5;;;3.33;100
17950;BME280;9100;48.700;9.316;2023-12-07T03:00:08;98044.1;;;3.33;100
17950;BME280;9100;48.700;9.316;2023-12-07T03:01:08;98046.7;;;3.31;100
17950;BME280;9100;48.700;9.316;2023-12-07T03:02:08;98047.7;;;3.3;100
17950;BME280;9100;48.700;9.316;2023-12-07T03:03:04;98054.4;;;3.3;100
17950;BME280;9100;48.700;9.316;2023-12-07T03:03:08;98049.5;;;3.28;100
17950;BME280;9100;48.700;9.316;2023-12-07T03:04:08;98052.8;;;3.29;100
17950;BME280;9100;48.700;9.316;2023-12-07T03:05:08;98057;;;3.3;100
17950;BME280;9100;48.700;9.316;2023-12-07T03:06:08;98061.1;;;3.31;100
17950;BME280;9100;48.700;9.316;2023-12-07T03:07:09;98055.4;;;3.29;100
17950;BME280;9100;48.700;9.316;2023-12-07T03:08:05;98057.8;;;3.3;100
17950;BME280;9100;48.700;9.316;2023-12-07T03:08:08;98057;;;3.3;100
17950;BME280;9100;48.700;9.316;2023-12-07T03:09:08;98057;;;3.3;100
17950;BME280;9100;48.700;9.316;2023-12-07T03:10:08;98058.6;;;3.31;100
17950;BME280;9100;48.700;9.316;2023-12-07T03:11:08;98058.6;;;3.31;100
17950;BME280;9100;48.700;9.316;2023-12-07T03:12:08;98054.4;;;3.3;100
17950;BME280;9100;48.700;9.316;2023-12-07T03:13:05;98052.20000000001;;;3.27;100
17950;BME280;9100;48.700;9.316;2023-12-07T03:13:08;98051.3;;;3.26;100
17950;BME280;9100;48.700;9.316;2023-12-07T03:14:08;98053.09999999999;;;3.26;100
17950;BME280;9100;48.700;9.316;2023-12-07T03:15:08;98056.5;;;3.25;100
17950;BME280;9100;48.700;9.316;2023-12-07T03:16:08;98059;;;3.25;100
17950;BME280;9100;48.700;9.316;2023-12-07T03:17:08;98056.7;;;3.23;100
17950;BME280;9100;48.700;9.316;2023-12-07T03:18:04;98054.2;;;3.22;100
17950;BME280;9100;48.700;9.316;2023-12-07T03:18:08;98054.2;;;3.22;100
17950;BME280;9100;48.700;9.316;2023-12-07T03:19:08;98049.2;;;3.22;100
17950;BME280;9100;48.700;9.316;2023-12-07T03:20:08;98058.5;;;3.21;100
17950;BME280;9100;48.700;9.316;2023-12-07T03:21:08;98054.4;;;3.2;100
17950;BME280;9100;48.700;9.316;2023-12-07T03:22:08;98044.3;;;3.2;100
17950;BME280;9100;48.700;9.316;2023-12-07T03:23:05;98047.79999999999;;;3.18;100
17950;BME280;9100;48.700;9.316;2023-12-07T03:23:08;98057.9;;;3.18;100
17950;BME280;9100;48.700;9.316;2023-12-07T03:24:08;98048.7;;;3.17;100
17950;BME280;9100;48.700;9.316;2023-12-07T03:25:08;98048.7;;;3.17;100
17950;BME280;9100;48.700;9.316;2023-12-07T03:26:08;98056.3;;;3.17;100
17950;BME280;9100;48.700;9.316;2023-12-07T03:27:08;98064;;;3.15;100
17950;BME280;9100;48.700;9.316;2023-12-07T03:28:05;98055.8;;;3.13;100
17950;BME280;9100;48.700;9.316;2023-12-07T03:28:08;98057.5;;;3.13;100
17950;BME280;9100;48.700;9.316;2023-12-07T03:29:08;98052.59999999999;;;3.11;100
17950;BME280;9100;48.700;9.316;2023-12-07T03:30:08;98054.3;;;3.11;100
17950;BME280;9100;48.700;9.316;2023-12-07T03:31:08;98055.5;;;3.07;100
17950;BME280;9100;48.700;9.316;2023-12-07T03:32:08;98050.7;;;3.04;100
17950;BME280;9100;48.700;9.316;2023-12-07T03:33:05;98054.1;;;3.03;100
17950;BME280;9100;48.700;9.316;2023-12-07T03:33:08;98053.3;;;3.02;100
17950;BME280;9100;48.700;9.316;2023-12-07T03:34:09;98055.2;;;3;100
17950;BME280;9100;48.700;9.316;2023-12-07T03:35:08;98051.8;;;3;100
17950;BME280;9100;48.700;9.316;2023-12-07T03:36:10;98053.7;;;2.98;100
17950;BME280;9100;48.700;9.316;2023-12-07T03:37:08;98051.2;;;2.98;100
17950;BME280;9100;48.700;9.316;2023-12-07T03:38:05;98058.6;;;2.99;100
17950;BME280;9100;48.700;9.316;2023-12-07T03:38:08;98052.70000000001;;;2.99;100
17950;BME280;9100;48.700;9.316;2023-12-07T03:39:08;98057.8;;;2.99;100
17950;BME280;9100;48.700;9.316;2023-12-07T03:40:09;98055.4;;;2.97;100
17950;BME280;9100;48.700;9.316;2023-12-07T03:41:08;98051.3;;;2.96;100
17950;BME280;9100;48.700;9.316;2023-12-07T03:42:08;98058;;;2.96;100
17950;BME280;9100;48.700;9.316;2023-12-07T03:43:05;98049.8;;;2.93;100
17950;BME280;9100;48.700;9.316;2023-12-07T03:43:08;98052.3;;;2.93;100
17950;BME280;9100;48.700;9.316;2023-12-07T03:44:08;98054.8;;;2.93;100
17950;BME280;9100;48.700;9.316;2023-12-07T03:45:08;98051.59999999999;;;2.91;100
17950;BME280;9100;48.700;9.316;2023-12-07T03:46:08;98052.5;;;2.9;100
17950;BME280;9100;48.700;9.316;2023-12-07T03:47:08;98053.5;;;2.89;100
17950;BME280;9100;48.700;9.316;2023-12-07T03:48:05;98056.1;;;2.88;100
17950;BME280;9100;48.700;9.316;2023-12-07T03:48:08;98059.6;;;2.87;100
17950;BME280;9100;48.700;9.316;2023-12-07T03:49:08;98057.2;;;2.85;100
17950;BME280;9100;48.700;9.316;2023-12-07T03:50:08;98058.8;;;2.86;100
17950;BME280;9100;48.700;9.316;2023-12-07T03:51:08;98053;;;2.84;100
17950;BME280;9100;48.700;9.316;2023-12-07T03:52:08;98056.6;;;2.82;100
17950;BME280;9100;48.700;9.316;2023-12-07T03:53:05;98060.90000000001;;;2.81;100
17950;BME280;9100;48.700;9.316;2023-12-07T03:53:08;98068.4;;;2.81;100
17950;BME280;9100;48.700;9.316;2023-12-07T03:54:08;98057.5;;;2.81;100
17950;BME280;9100;48.700;9.316;2023-12-07T03:55:08;98068.4;;;2.81;100
17950;BME280;9100;48.700;9.316;2023-12-07T03:56:08;98067.6;;;2.81;100
17950;BME280;9100;48.700;9.316;2023-12-07T03:57:08;98069.3;;;2.8;100
17950;BME280;9100;48.700;9.316;2023-12-07T03:58:05;98069.6;;;2.77;100
17950;BME280;9100;48.700;9.316;2023-12-07T03:58:08;98067.1;;;2.77;100
17950;BME280;9100;48.700;9.316;2023-12-07T03:59:08;98067.7;;;2.79;100
17950;BME280;9100;48.700;9.316;2023-12-07T04:00:10;98067.7;;;2.79;100
17950;BME280;9100;48.700;9.316;2023-12-07T04:01:08;98076;;;2.81;100
17950;BME280;9100;48.700;9.316;2023-12-07T04:02:08;98070.1;;;2.81;100
17950;BME280;9100;48.700;9.316;2023-12-07T04:03:05;98069.3;;;2.8;100
17950;BME280;9100;48.700;9.316;2023-12-07T04:03:08;98071.8;;;2.82;100
17950;BME280;9100;48.700;9.316;2023-12-07T04:04:08;98073.5;;;2.81;100
17950;BME280;9100;48.700;9.316;2023-12-07T04:05:08;98066.6;;;2.83;100
17950;BME280;9100;48.700;9.316;2023-12-07T04:06:08;98073.2;;;2.84;100
17950;BME280;9100;48.700;9.316;2023-12-07T04:07:08;98077.5;;;2.84;100
17950;BME280;9100;48.700;9.316;2023-12-07T04:08:05;98072.6;;;2.82;100
17950;BME280;9100;48.700;9.316;2023-12-07T04:08:08;98071.6;;;2.83;100
17950;BME280;9100;48.700;9.316;2023-12-07T04:09:08;98078.3;;;2.84;100
17950;BME280;9100;48.700;9.316;2023-12-07T04:10:08;98076.70000000001;;;2.83;100
17950;BME280;9100;48.700;9.316;2023-12-07T04:11:08;98074.1;;;2.83;100
17950;BME280;9100;48.700;9.316;2023-12-07T04:12:08;98080.8;;;2.84;100
17950;BME280;9100;48.700;9.316;2023-12-07T04:13:05;98079.2;;;2.83;100
17950;BME280;9100;48.700;9.316;2023-12-07T04:13:08;98086;;;2.83;100
17950;BME280;9100;48.700;9.316;2023-12-07T04:14:08;98081.9;;;2.82;100
17950;BME280;9100;48.700;9.316;2023-12-07T04:15:08;98074.5;;;2.79;100
17950;BME280;9100;48.700;9.316;2023-12-07T04:16:08;98089.8;;;2.77;100
17950;BME280;9100;48.700;9.316;2023-12-07T04:17:08;98082.5;;;2.74;100
17950;BME280;9100;48.700;9.316;2023-12-07T04:18:05;98082.6;;;2.73;100
17950;BME280;9100;48.700;9.316;2023-12-07T04:18:08;98081.8;;;2.72;100
17950;BME280;9100;48.700;9.316;2023-12-07T04:19:08;98083.4;;;2.73;100
17950;BME280;9100;48.700;9.316;2023-12-07T04:20:08;98081.8;;;2.72;100
17950;BME280;9100;48.700;9.316;2023-12-07T04:21:08;98083.5;;;2.72;100
17950;BME280;9100;48.700;9.316;2023-12-07T04:22:08;98080.3;;;2.7;100
17950;BME280;9100;48.700;9.316;2023-12-07T04:23:05;98083.6;;;2.7;100
17950;BME280;9100;48.700;9.316;2023-12-07T04:23:08;98081.1;;;2.7;100
17950;BME280;9100;48.700;9.316;2023-12-07T04:24:08;98082.8;;;2.7;100
17950;BME280;9100;48.700;9.316;2023-12-07T04:25:08;98086.90000000001;;;2.71;100
17950;BME280;9100;48.700;9.316;2023-12-07T04:26:08;98083.6;;;2.7;100
17950;BME280;9100;48.700;9.316;2023-12-07T04:27:08;98076.8;;;2.71;100
17950;BME280;9100;48.700;9.316;2023-12-07T04:28:04;98084.5;;;2.69;100
17950;BME280;9100;48.700;9.316;2023-12-07T04:28:08;98092.1;;;2.69;100
17950;BME280;9100;48.700;9.316;2023-12-07T04:29:08;98091.9;;;2.72;100
17950;BME280;9100;48.700;9.316;2023-12-07T04:30:08;98084.3;;;2.72;100
17950;BME280;9100;48.700;9.316;2023-12-07T04:31:08;98087.59999999999;;;2.73;100
17950;BME280;9100;48.700;9.316;2023-12-07T04:32:08;98086;;;2.72;100
17950;BME280;9100;48.700;9.316;2023-12-07T04:33:05;98086.90000000001;;;2.71;100
17950;BME280;9100;48.700;9.316;2023-12-07T04:33:08;98093.7;;;2.7;100
17950;BME280;9100;48.700;9.316;2023-12-07T04:34:08;98095.3;;;2.71;100
17950;BME280;9100;48.700;9.316;2023-12-07T04:35:08;98086.1;;;2.7;100
17950;BME280;9100;48.700;9.316;2023-12-07T04:36:08;98082;;;2.69;100
17950;BME280;9100;48.700;9.316;2023-12-07T04:37:08;98089.8;;;2.66;100
17950;BME280;9100;48.700;9.316;2023-12-07T04:38:05;98088.9;;;2.67;100
17950;BME280;9100;48.700;9.316;2023-12-07T04:38:08;98088.9;;;2.67;100